Time;durP1;ratioP1;P1;durP2;ratioP2;P2;SDS_P1;SDS_P2;PMS_P1;PMS_P2;Temp;Humidity;BMP_temperature;BMP_pressure;BME280_temperature;BME280_humidity;BME280_pressure;Samples;Min_cycle;Max_cycle;Signal;HPM_P1;HPM_P2
2023/05/11 00:01:14;;;;;;;10.02;2.38;;;;;;;;;;5104908;27;20035;-68
2023/05/11 00:03:39;;;;;;;7.28;2.30;;;;;;;;;;5106112;27;20103;-69
2023/05/11 00:06:05;;;;;;;8.63;2.90;;;;;;;;;;5094118;28;20031;-68
2023/05/11 00:08:30;;;;;;;10.30;2.60;;;;;;;;;;5106293;27;20069;-68
2023/05/11 00:10:55;;;;;;;8.88;2.67;;;;;;;;;;5105561;27;20054;-68
2023/05/11 00:13:21;;;;;;;6.68;2.60;;;;;;;;;;5106011;27;20047;-68
2023/05/11 00:15:46;;;;;;;9.82;2.72;;;;;;;;;;5103124;28;20122;-68
2023/05/11 00:18:12;;;;;;;10.80;2.92;;;;;;;;;;5094147;28;20020;-68
2023/05/11 00:20:37;;;;;;;7.18;2.55;;;;;;;;;;5106938;28;20111;-68
2023/05/11 00:23:03;;;;;;;5.57;2.25;;;;;;;;;;5102477;27;20031;-68
2023/05/11 00:25:28;;;;;;;10.13;2.72;;;;;;;;;;5096374;28;20032;-68
2023/05/11 00:27:53;;;;;;;7.50;2.50;;;;;;;;;;5111681;27;20032;-68
2023/05/11 00:30:19;;;;;;;7.88;3.05;;;;;;;;;;5106521;27;20110;-68
2023/05/11 00:32:44;;;;;;;11.15;3.22;;;;;;;;;;5105815;28;20596;-68
2023/05/11 00:35:10;;;;;;;10.43;3.13;;;;;;;;;;5105257;27;20031;-68
2023/05/11 00:37:39;;;;;;;11.20;3.20;;;;;;;;;;5097156;28;20054;-68
2023/05/11 00:40:05;;;;;;;11.68;3.63;;;;;;;;;;5091861;28;20031;-68
2023/05/11 00:42:30;;;;;;;7.32;2.88;;;;;;;;;;5105376;27;20059;-68
2023/05/11 00:44:56;;;;;;;8.02;2.80;;;;;;;;;;5098666;28;20734;-68
2023/05/11 00:47:21;;;;;;;12.43;3.22;;;;;;;;;;5104951;27;20040;-69
2023/05/11 00:49:48;;;;;;;11.30;3.10;;;;;;;;;;5105549;27;20039;-68
2023/05/11 00:52:14;;;;;;;18.30;3.35;;;;;;;;;;5101388;27;20502;-68
2023/05/11 00:54:39;;;;;;;14.00;3.38;;;;;;;;;;5087075;27;20047;-68
2023/05/11 00:57:05;;;;;;;8.13;3.10;;;;;;;;;;5105838;28;20123;-69
2023/05/11 00:59:31;;;;;;;10.38;2.58;;;;;;;;;;5104897;27;20116;-68
2023/05/11 01:01:57;;;;;;;9.38;3.00;;;;;;;;;;5093612;27;20052;-68
2023/05/11 01:04:22;;;;;;;12.63;3.42;;;;;;;;;;5096016;27;20152;-69
2023/05/11 01:06:57;;;;;;;12.65;3.00;;;;;;;;;;5090998;28;20042;-68
2023/05/11 01:09:33;;;;;;;7.85;3.38;;;;;;;;;;5097370;27;20042;-68
2023/05/11 01:12:23;;;;;;;11.18;3.38;;;;;;;;;;5102394;28;20106;-68
2023/05/11 01:15:07;;;;;;;8.68;3.35;;;;;;;;;;5099480;28;20039;-68
2023/05/11 01:17:55;;;;;;;15.85;4.07;;;;;;;;;;5088070;28;20138;-68
2023/05/11 01:20:24;;;;;;;12.07;3.55;;;;;;;;;;5104585;27;20067;-68
2023/05/11 01:23:15;;;;;;;14.15;3.90;;;;;;;;;;5103197;27;20575;-68
2023/05/11 01:25:50;;;;;;;15.02;4.15;;;;;;;;;;5095987;27;20130;-68
2023/05/11 01:28:33;;;;;;;8.20;4.18;;;;;;;;;;5105212;27;20482;-68
2023/05/11 01:31:09;;;;;;;9.38;3.42;;;;;;;;;;5084348;27;20059;-68
2023/05/11 01:33:38;;;;;;;12.25;3.45;;;;;;;;;;5085976;28;20048;-68
2023/05/11 01:36:07;;;;;;;10.65;3.40;;;;;;;;;;5105219;28;20080;-68
2023/05/11 01:38:36;;;;;;;11.30;3.40;;;;;;;;;;5097447;28;20032;-69
2023/05/11 01:41:15;;;;;;;11.85;3.58;;;;;;;;;;5096875;28;20024;-68
2023/05/11 01:43:43;;;;;;;11.70;3.90;;;;;;;;;;5093411;28;20040;-68
2023/05/11 01:46:11;;;;;;;14.30;4.22;;;;;;;;;;5106882;28;20057;-68
2023/05/11 01:48:41;;;;;;;11.50;4.25;;;;;;;;;;5113720;27;20028;-68
2023/05/11 01:51:07;;;;;;;10.90;3.72;;;;;;;;;;5110692;28;20049;-68
2023/05/11 01:53:35;;;;;;;15.48;4.40;;;;;;;;;;5107469;27;20040;-68
2023/05/11 01:56:02;;;;;;;17.42;4.88;;;;;;;;;;5108137;27;20039;-68
2023/05/11 01:58:29;;;;;;;19.92;4.45;;;;;;;;;;5107478;28;20039;-69
2023/05/11 02:00:56;;;;;;;13.10;4.30;;;;;;;;;;5107083;27;20067;-68
2023/05/11 02:03:24;;;;;;;12.88;4.63;;;;;;;;;;5098387;28;20047;-68
2023/05/11 02:05:51;;;;;;;13.85;4.13;;;;;;;;;;5101483;28;20034;-68
2023/05/11 02:08:17;;;;;;;15.75;4.53;;;;;;;;;;5107093;28;20032;-68
2023/05/11 02:10:44;;;;;;;16.75;4.45;;;;;;;;;;5110188;27;20034;-68
2023/05/11 02:13:11;;;;;;;11.77;4.80;;;;;;;;;;5105507;27;20130;-68
2023/05/11 02:15:39;;;;;;;14.75;4.65;;;;;;;;;;5103262;27;20111;-69
2023/05/11 02:18:06;;;;;;;11.90;4.72;;;;;;;;;;5107997;28;20029;-68
2023/05/11 02:20:33;;;;;;;11.02;4.32;;;;;;;;;;5102588;27;20032;-68
2023/05/11 02:22:59;;;;;;;17.08;5.28;;;;;;;;;;5102659;27;20032;-68
2023/05/11 02:25:25;;;;;;;14.95;4.57;;;;;;;;;;5107928;27;20027;-68
2023/05/11 02:27:50;;;;;;;13.95;4.30;;;;;;;;;;5107694;27;20420;-68
2023/05/11 02:30:16;;;;;;;14.75;4.55;;;;;;;;;;5095754;27;20064;-68
2023/05/11 02:32:48;;;;;;;15.35;4.75;;;;;;;;;;5105927;28;20043;-68
2023/05/11 02:35:20;;;;;;;20.35;4.40;;;;;;;;;;5086204;28;20446;-68
2023/05/11 02:37:47;;;;;;;14.77;4.25;;;;;;;;;;5103093;27;20028;-68
2023/05/11 02:40:17;;;;;;;15.27;4.65;;;;;;;;;;5094095;28;20031;-68
2023/05/11 02:42:45;;;;;;;13.60;4.43;;;;;;;;;;5107703;27;20028;-68
2023/05/11 02:45:14;;;;;;;9.80;4.10;;;;;;;;;;5107595;27;20030;-68
2023/05/11 02:47:46;;;;;;;13.07;4.18;;;;;;;;;;5106127;28;20107;-68
2023/05/11 02:50:13;;;;;;;14.00;4.13;;;;;;;;;;5106355;28;20036;-68
2023/05/11 02:52:43;;;;;;;11.63;4.53;;;;;;;;;;5107011;28;20281;-68
2023/05/11 02:55:10;;;;;;;14.35;4.57;;;;;;;;;;5107530;27;20413;-68
2023/05/11 02:57:37;;;;;;;11.95;4.22;;;;;;;;;;5106038;27;20084;-68
2023/05/11 03:00:03;;;;;;;13.60;4.32;;;;;;;;;;5092428;28;20044;-68
2023/05/11 03:02:28;;;;;;;10.70;4.32;;;;;;;;;;5091771;27;20032;-68
2023/05/11 03:04:55;;;;;;;13.93;4.85;;;;;;;;;;5103280;27;20039;-68
2023/05/11 03:07:20;;;;;;;9.75;4.75;;;;;;;;;;5105535;27;20047;-68
2023/05/11 03:09:46;;;;;;;10.70;4.18;;;;;;;;;;5107606;27;20032;-68
2023/05/11 03:12:13;;;;;;;9.02;3.78;;;;;;;;;;5113571;27;20028;-68
2023/05/11 03:14:39;;;;;;;10.93;3.90;;;;;;;;;;5114385;28;20019;-68
2023/05/11 03:17:05;;;;;;;18.35;4.45;;;;;;;;;;5108112;27;20072;-68
2023/05/11 03:19:31;;;;;;;11.43;3.88;;;;;;;;;;5107142;27;20032;-68
2023/05/11 03:21:58;;;;;;;10.82;4.65;;;;;;;;;;5105621;28;20028;-68
2023/05/11 03:24:25;;;;;;;9.77;4.55;;;;;;;;;;5100652;27;20459;-68
2023/05/11 03:26:53;;;;;;;14.93;4.50;;;;;;;;;;5098824;27;20066;-68
2023/05/11 03:29:21;;;;;;;17.00;5.05;;;;;;;;;;5097941;28;20032;-68
2023/05/11 03:31:46;;;;;;;12.65;4.18;;;;;;;;;;5106845;27;20118;-68
2023/05/11 03:34:12;;;;;;;17.40;4.78;;;;;;;;;;5098516;28;20038;-68
2023/05/11 03:36:39;;;;;;;12.48;4.63;;;;;;;;;;5105039;27;20080;-68
2023/05/11 03:39:07;;;;;;;10.65;4.78;;;;;;;;;;5091892;28;20020;-68
2023/05/11 03:41:34;;;;;;;10.45;4.20;;;;;;;;;;5096867;28;20043;-69
2023/05/11 03:44:01;;;;;;;9.98;4.95;;;;;;;;;;5105999;27;20039;-68
2023/05/11 03:46:28;;;;;;;11.73;4.25;;;;;;;;;;5104438;28;20063;-68
2023/05/11 03:48:54;;;;;;;14.73;4.70;;;;;;;;;;5106589;27;20428;-68
2023/05/11 03:51:20;;;;;;;13.63;4.13;;;;;;;;;;5105743;27;20087;-68
2023/05/11 03:53:46;;;;;;;15.95;4.90;;;;;;;;;;5106574;28;20023;-68
2023/05/11 03:56:11;;;;;;;13.27;4.47;;;;;;;;;;5102505;27;20042;-68
2023/05/11 03:58:39;;;;;;;10.13;3.97;;;;;;;;;;5100639;27;20036;-68
2023/05/11 04:01:06;;;;;;;11.90;4.20;;;;;;;;;;5100653;28;20050;-68
2023/05/11 04:03:32;;;;;;;12.45;4.57;;;;;;;;;;5105702;28;20032;-68
2023/05/11 04:05:57;;;;;;;13.90;4.28;;;;;;;;;;5100926;28;20019;-68
2023/05/11 04:08:22;;;;;;;14.43;4.43;;;;;;;;;;5105469;27;20077;-68
2023/05/11 04:10:48;;;;;;;10.70;4.43;;;;;;;;;;5106203;27;20525;-68
2023/05/11 04:13:13;;;;;;;11.98;4.50;;;;;;;;;;5097472;28;20036;-68
2023/05/11 04:15:38;;;;;;;13.13;3.88;;;;;;;;;;5105545;27;20035;-68
2023/05/11 04:18:04;;;;;;;15.55;4.18;;;;;;;;;;5105952;28;20020;-68
2023/05/11 04:20:29;;;;;;;12.38;4.30;;;;;;;;;;5105794;27;20504;-68
2023/05/11 04:22:55;;;;;;;14.40;4.13;;;;;;;;;;5100290;28;20196;-68
2023/05/11 04:25:20;;;;;;;13.05;4.35;;;;;;;;;;5108194;27;20452;-68
2023/05/11 04:27:45;;;;;;;13.60;4.22;;;;;;;;;;5103930;27;20024;-68
2023/05/11 04:30:11;;;;;;;17.27;4.75;;;;;;;;;;5108105;27;20051;-68
2023/05/11 04:32:36;;;;;;;12.90;4.72;;;;;;;;;;5107077;28;20033;-68
2023/05/11 04:35:02;;;;;;;15.55;4.57;;;;;;;;;;5110509;28;20027;-68
2023/05/11 04:37:28;;;;;;;8.82;4.22;;;;;;;;;;5113398;27;20139;-68
2023/05/11 04:39:53;;;;;;;9.63;4.22;;;;;;;;;;5091236;28;20528;-69
2023/05/11 04:42:18;;;;;;;15.10;4.47;;;;;;;;;;5105389;27;20011;-68
2023/05/11 04:44:44;;;;;;;10.73;4.10;;;;;;;;;;5098245;28;21049;-68
2023/05/11 04:47:09;;;;;;;13.63;4.25;;;;;;;;;;5105136;27;20031;-68
2023/05/11 04:49:34;;;;;;;13.48;4.70;;;;;;;;;;5103489;28;20040;-68
2023/05/11 04:52:00;;;;;;;11.98;4.50;;;;;;;;;;5093545;28;20131;-68
2023/05/11 04:54:25;;;;;;;11.23;4.25;;;;;;;;;;5087145;27;20035;-68
2023/05/11 04:56:51;;;;;;;12.98;4.05;;;;;;;;;;5105802;28;20026;-68
2023/05/11 04:59:16;;;;;;;13.30;4.22;;;;;;;;;;5104301;27;20131;-68
2023/05/11 05:01:41;;;;;;;13.68;4.60;;;;;;;;;;5103314;28;20040;-68
2023/05/11 05:04:07;;;;;;;10.40;4.53;;;;;;;;;;5104319;27;20665;-69
2023/05/11 05:06:33;;;;;;;10.52;4.22;;;;;;;;;;5103911;27;20027;-68
2023/05/11 05:08:58;;;;;;;12.90;4.43;;;;;;;;;;5105022;28;20075;-68
2023/05/11 05:11:23;;;;;;;11.20;4.57;;;;;;;;;;5104851;27;20066;-68
2023/05/11 05:13:49;;;;;;;15.02;4.70;;;;;;;;;;5104329;27;20043;-68
2023/05/11 05:16:14;;;;;;;12.18;4.65;;;;;;;;;;5105044;27;20111;-68
2023/05/11 05:18:39;;;;;;;10.20;3.78;;;;;;;;;;5093606;28;20374;-68
2023/05/11 05:21:05;;;;;;;12.77;4.70;;;;;;;;;;5105227;28;20020;-68
2023/05/11 05:23:30;;;;;;;12.85;4.43;;;;;;;;;;5103174;28;20020;-68
2023/05/11 05:25:56;;;;;;;14.43;4.45;;;;;;;;;;5100659;27;20036;-68
2023/05/11 05:28:21;;;;;;;8.60;3.63;;;;;;;;;;5101729;27;20024;-68
2023/05/11 05:30:47;;;;;;;14.10;4.82;;;;;;;;;;5104994;27;20501;-68
2023/05/11 05:33:12;;;;;;;9.95;4.18;;;;;;;;;;5103054;27;20114;-68
2023/05/11 05:35:37;;;;;;;9.18;4.43;;;;;;;;;;5105678;28;20051;-68
2023/05/11 05:38:03;;;;;;;8.77;3.55;;;;;;;;;;5104988;27;20027;-68
2023/05/11 05:40:28;;;;;;;10.85;4.25;;;;;;;;;;5092873;28;20624;-68
2023/05/11 05:42:53;;;;;;;11.07;3.95;;;;;;;;;;5101963;28;20093;-68
2023/05/11 05:45:19;;;;;;;11.23;4.25;;;;;;;;;;5097734;27;20088;-68
2023/05/11 05:47:44;;;;;;;10.02;4.32;;;;;;;;;;5105607;28;20019;-68
2023/05/11 05:50:10;;;;;;;11.93;4.45;;;;;;;;;;5104590;27;20067;-68
2023/05/11 05:52:36;;;;;;;8.80;3.83;;;;;;;;;;5100265;28;20120;-68
2023/05/11 05:55:01;;;;;;;15.23;3.95;;;;;;;;;;5099645;27;20047;-68
2023/05/11 05:57:29;;;;;;;9.45;3.90;;;;;;;;;;5108641;27;20027;-68
2023/05/11 05:59:54;;;;;;;9.45;4.00;;;;;;;;;;5114221;28;20051;-68
2023/05/11 06:02:20;;;;;;;15.38;4.18;;;;;;;;;;5102081;27;20437;-68
2023/05/11 06:04:46;;;;;;;12.90;4.35;;;;;;;;;;5105498;27;20091;-69
2023/05/11 06:07:12;;;;;;;9.27;4.00;;;;;;;;;;5102882;28;20165;-68
2023/05/11 06:09:38;;;;;;;13.05;4.05;;;;;;;;;;5103313;28;20067;-68
2023/05/11 06:12:04;;;;;;;12.10;4.18;;;;;;;;;;5104487;28;20023;-69
2023/05/11 06:14:30;;;;;;;11.45;3.95;;;;;;;;;;5102643;27;20036;-69
2023/05/11 06:16:55;;;;;;;11.98;4.63;;;;;;;;;;5086960;27;20080;-68
2023/05/11 06:19:21;;;;;;;10.65;4.40;;;;;;;;;;5086075;28;20036;-68
2023/05/11 06:21:47;;;;;;;15.60;3.92;;;;;;;;;;5097516;28;20040;-68
2023/05/11 06:24:13;;;;;;;9.50;4.13;;;;;;;;;;5092793;28;20039;-68
2023/05/11 06:26:39;;;;;;;12.77;4.28;;;;;;;;;;5094724;28;20032;-68
2023/05/11 06:29:05;;;;;;;12.85;4.47;;;;;;;;;;5102647;27;20035;-68
2023/05/11 06:31:30;;;;;;;10.93;4.72;;;;;;;;;;5104882;28;20050;-68
2023/05/11 06:33:56;;;;;;;9.57;4.00;;;;;;;;;;5097517;27;20043;-68
2023/05/11 06:36:21;;;;;;;8.48;4.03;;;;;;;;;;5104557;27;20032;-68
2023/05/11 06:38:46;;;;;;;14.43;4.80;;;;;;;;;;5096299;27;20100;-68
2023/05/11 06:41:12;;;;;;;12.75;4.15;;;;;;;;;;5090469;27;20040;-68
2023/05/11 06:43:37;;;;;;;12.57;3.90;;;;;;;;;;5101021;27;20034;-68
2023/05/11 06:46:03;;;;;;;8.68;4.22;;;;;;;;;;5098010;27;20119;-68
2023/05/11 06:48:29;;;;;;;9.85;4.00;;;;;;;;;;5097164;27;20040;-69
2023/05/11 06:50:55;;;;;;;12.60;4.50;;;;;;;;;;5103802;27;20035;-68
2023/05/11 06:53:21;;;;;;;11.70;4.85;;;;;;;;;;5107357;28;20039;-68
2023/05/11 06:55:47;;;;;;;10.75;4.28;;;;;;;;;;5108653;28;20456;-68
2023/05/11 06:58:13;;;;;;;11.15;4.18;;;;;;;;;;5107708;27;20973;-68
2023/05/11 07:00:38;;;;;;;9.48;4.25;;;;;;;;;;5107409;27;20075;-68
2023/05/11 07:03:04;;;;;;;11.70;4.57;;;;;;;;;;5106408;27;20120;-68
2023/05/11 07:05:30;;;;;;;13.88;4.10;;;;;;;;;;5108643;28;20051;-68
2023/05/11 07:07:55;;;;;;;11.07;4.57;;;;;;;;;;5107971;27;20023;-68
2023/05/11 07:10:20;;;;;;;10.88;4.63;;;;;;;;;;5108522;28;20582;-68
2023/05/11 07:12:46;;;;;;;10.00;4.50;;;;;;;;;;5108384;28;20024;-68
2023/05/11 07:15:11;;;;;;;10.45;4.07;;;;;;;;;;5098288;27;20097;-67
2023/05/11 07:17:37;;;;;;;8.32;3.90;;;;;;;;;;5097297;28;20509;-67
2023/05/11 07:20:02;;;;;;;9.13;4.45;;;;;;;;;;5109783;27;20885;-67
2023/05/11 07:22:28;;;;;;;11.13;4.78;;;;;;;;;;5116161;28;20048;-68
2023/05/11 07:24:53;;;;;;;13.18;4.55;;;;;;;;;;5110190;28;20035;-67
2023/05/11 07:27:18;;;;;;;14.75;4.97;;;;;;;;;;5106621;27;20066;-68
2023/05/11 07:29:44;;;;;;;10.55;4.82;;;;;;;;;;5094734;27;20541;-68
2023/05/11 07:32:09;;;;;;;10.18;4.95;;;;;;;;;;5102873;27;20028;-68
2023/05/11 07:34:35;;;;;;;12.02;5.00;;;;;;;;;;5101322;28;20022;-68
2023/05/11 07:37:00;;;;;;;14.55;5.40;;;;;;;;;;5107610;27;20092;-68
2023/05/11 07:39:26;;;;;;;10.43;4.70;;;;;;;;;;5104364;27;20392;-68
2023/05/11 07:41:51;;;;;;;9.25;4.78;;;;;;;;;;5090723;27;20412;-68
2023/05/11 07:44:17;;;;;;;10.27;5.07;;;;;;;;;;5086015;28;20024;-68
2023/05/11 07:46:42;;;;;;;10.77;4.65;;;;;;;;;;5100350;27;20111;-68
2023/05/11 07:49:09;;;;;;;7.70;4.30;;;;;;;;;;5102009;27;20616;-68
2023/05/11 07:51:35;;;;;;;14.55;4.72;;;;;;;;;;5106078;27;20520;-68
2023/05/11 07:54:01;;;;;;;10.38;4.70;;;;;;;;;;5097745;28;20039;-68
2023/05/11 07:56:26;;;;;;;10.73;4.28;;;;;;;;;;5102928;27;20031;-68
2023/05/11 07:58:51;;;;;;;8.52;4.28;;;;;;;;;;5107631;27;20027;-68
2023/05/11 08:01:17;;;;;;;9.20;4.15;;;;;;;;;;5106431;28;20520;-69
2023/05/11 08:03:42;;;;;;;13.15;4.82;;;;;;;;;;5102433;27;20023;-68
2023/05/11 08:06:07;;;;;;;13.30;4.97;;;;;;;;;;5105144;28;20036;-68
2023/05/11 08:08:33;;;;;;;13.18;5.07;;;;;;;;;;5097834;27;20127;-68
2023/05/11 08:10:59;;;;;;;11.55;4.90;;;;;;;;;;5101093;27;20023;-68
2023/05/11 08:13:25;;;;;;;12.75;5.00;;;;;;;;;;5097703;27;20122;-68
2023/05/11 08:15:51;;;;;;;14.65;4.50;;;;;;;;;;5094856;28;20463;-68
2023/05/11 08:18:17;;;;;;;9.20;4.70;;;;;;;;;;5102507;27;20028;-68
2023/05/11 08:20:42;;;;;;;11.50;4.53;;;;;;;;;;5093978;27;20032;-68
2023/05/11 08:23:09;;;;;;;8.65;4.35;;;;;;;;;;5091376;28;20431;-68
2023/05/11 08:25:35;;;;;;;9.18;5.07;;;;;;;;;;5100829;28;20034;-67
2023/05/11 08:28:01;;;;;;;17.02;5.38;;;;;;;;;;5102404;28;20030;-68
2023/05/11 08:30:26;;;;;;;13.00;5.30;;;;;;;;;;5094152;28;20024;-68
2023/05/11 08:32:51;;;;;;;11.13;4.70;;;;;;;;;;5101689;27;20118;-68
2023/05/11 08:35:18;;;;;;;8.23;4.30;;;;;;;;;;5105005;28;20032;-68
2023/05/11 08:37:43;;;;;;;11.23;4.38;;;;;;;;;;5112440;27;20030;-68
2023/05/11 08:40:10;;;;;;;10.45;4.75;;;;;;;;;;5091370;28;20036;-68
2023/05/11 08:42:39;;;;;;;9.98;4.65;;;;;;;;;;5109086;27;20024;-68
2023/05/11 08:45:06;;;;;;;10.00;4.80;;;;;;;;;;5109684;27;20031;-68
2023/05/11 08:47:32;;;;;;;12.18;5.00;;;;;;;;;;5100650;27;20347;-68
2023/05/11 08:49:57;;;;;;;11.77;5.05;;;;;;;;;;5103542;27;20015;-67
2023/05/11 08:52:24;;;;;;;14.52;5.35;;;;;;;;;;5107516;28;20481;-69
2023/05/11 08:54:49;;;;;;;14.10;5.13;;;;;;;;;;5101687;27;20041;-70
2023/05/11 08:57:16;;;;;;;11.02;5.00;;;;;;;;;;5102776;27;20028;-69
2023/05/11 08:59:45;;;;;;;12.00;5.13;;;;;;;;;;5092102;27;20097;-69
2023/05/11 09:02:16;;;;;;;12.68;4.95;;;;;;;;;;5095127;27;20135;-69
2023/05/11 09:04:43;;;;;;;11.93;5.07;;;;;;;;;;5096085;27;20027;-69
2023/05/11 09:07:10;;;;;;;8.43;4.63;;;;;;;;;;5096899;27;20130;-69
2023/05/11 09:09:36;;;;;;;11.93;5.18;;;;;;;;;;5092707;27;20072;-70
2023/05/11 09:12:01;;;;;;;15.50;5.00;;;;;;;;;;5101723;27;20464;-69
2023/05/11 09:14:28;;;;;;;14.35;6.00;;;;;;;;;;5098544;28;20732;-69
2023/05/11 09:16:53;;;;;;;15.75;5.63;;;;;;;;;;5099003;27;20019;-70
2023/05/11 09:19:19;;;;;;;14.40;5.53;;;;;;;;;;5097917;28;20032;-68
2023/05/11 09:21:46;;;;;;;12.35;5.25;;;;;;;;;;5095187;28;20110;-71
2023/05/11 09:24:12;;;;;;;13.40;5.40;;;;;;;;;;5100896;27;20080;-71
2023/05/11 09:26:37;;;;;;;15.63;5.47;;;;;;;;;;5102102;27;20028;-69
2023/05/11 09:29:03;;;;;;;10.32;4.80;;;;;;;;;;5104078;27;20015;-70
2023/05/11 09:31:37;;;;;;;11.93;5.10;;;;;;;;;;5104465;28;20160;-70
2023/05/11 09:34:11;;;;;;;15.00;5.88;;;;;;;;;;5099624;28;20035;-70
2023/05/11 09:36:37;;;;;;;12.38;5.28;;;;;;;;;;5106940;27;20042;-69
2023/05/11 09:39:03;;;;;;;10.13;5.25;;;;;;;;;;5094164;27;20024;-69
2023/05/11 09:41:31;;;;;;;14.93;5.10;;;;;;;;;;5098135;28;20035;-68
2023/05/11 09:44:29;;;;;;;14.85;5.10;;;;;;;;;;5102306;27;20030;-69
2023/05/11 09:47:11;;;;;;;14.00;6.00;;;;;;;;;;5087246;27;20097;-68
2023/05/11 09:49:42;;;;;;;13.32;6.25;;;;;;;;;;5089025;28;20515;-69
2023/05/11 09:52:09;;;;;;;14.57;6.00;;;;;;;;;;5095530;28;20594;-68
2023/05/11 09:54:45;;;;;;;18.73;6.38;;;;;;;;;;5091108;27;20039;-69
2023/05/11 09:57:30;;;;;;;13.60;5.93;;;;;;;;;;5091604;27;20100;-69
2023/05/11 09:59:58;;;;;;;13.65;6.20;;;;;;;;;;5090416;28;20044;-69
2023/05/11 10:02:28;;;;;;;12.98;5.03;;;;;;;;;;5096493;28;20032;-68
2023/05/11 10:04:56;;;;;;;14.82;6.70;;;;;;;;;;5092584;27;20020;-68
2023/05/11 10:07:32;;;;;;;17.08;5.25;;;;;;;;;;5106502;28;20043;-69
2023/05/11 10:10:06;;;;;;;13.52;6.00;;;;;;;;;;5095895;28;20596;-69
2023/05/11 10:12:32;;;;;;;13.63;5.90;;;;;;;;;;5090994;28;20040;-69
2023/05/11 10:15:05;;;;;;;17.13;5.80;;;;;;;;;;5095127;27;20047;-69
2023/05/11 10:17:31;;;;;;;11.73;5.63;;;;;;;;;;5099692;27;20713;-69
2023/05/11 10:19:58;;;;;;;13.40;6.38;;;;;;;;;;5102623;27;20048;-69
2023/05/11 10:22:25;;;;;;;15.75;5.65;;;;;;;;;;5104337;27;20022;-68
2023/05/11 10:24:51;;;;;;;16.50;6.22;;;;;;;;;;5108123;27;20542;-69
2023/05/11 10:27:20;;;;;;;14.40;6.32;;;;;;;;;;5096802;27;20042;-69
2023/05/11 10:29:46;;;;;;;9.88;5.43;;;;;;;;;;5094656;28;20047;-69
2023/05/11 10:32:15;;;;;;;15.00;6.18;;;;;;;;;;5090865;27;20051;-69
2023/05/11 10:34:41;;;;;;;13.93;5.95;;;;;;;;;;5100159;27;20511;-68
2023/05/11 10:37:08;;;;;;;10.90;5.43;;;;;;;;;;5099291;27;20516;-69
2023/05/11 10:39:38;;;;;;;15.88;6.10;;;;;;;;;;5093383;27;20499;-69
2023/05/11 10:42:39;;;;;;;12.48;6.03;;;;;;;;;;5098654;27;20040;-68
2023/05/11 10:45:26;;;;;;;14.98;5.90;;;;;;;;;;5081515;27;20564;-69
2023/05/11 10:48:25;;;;;;;12.10;6.13;;;;;;;;;;5071541;27;20035;-69
2023/05/11 10:51:04;;;;;;;12.27;6.07;;;;;;;;;;5098992;27;20516;-68
2023/05/11 10:54:09;;;;;;;12.18;5.57;;;;;;;;;;5095517;27;20059;-68
2023/05/11 10:57:05;;;;;;;11.10;5.50;;;;;;;;;;5097003;27;20134;-69
2023/05/11 11:00:07;;;;;;;11.00;5.32;;;;;;;;;;5095716;27;20112;-68
2023/05/11 11:02:33;;;;;;;10.43;5.55;;;;;;;;;;5104582;27;20390;-69
2023/05/11 11:05:04;;;;;;;16.58;6.45;;;;;;;;;;5092795;27;20473;-68
2023/05/11 11:07:30;;;;;;;9.45;5.53;;;;;;;;;;5102485;27;20283;-69
2023/05/11 11:10:00;;;;;;;12.63;5.65;;;;;;;;;;5103222;27;20445;-68
2023/05/11 11:12:28;;;;;;;9.80;5.03;;;;;;;;;;5099594;27;20036;-69
2023/05/11 11:15:01;;;;;;;11.57;5.38;;;;;;;;;;5097304;27;20042;-69
2023/05/11 11:17:34;;;;;;;11.55;5.47;;;;;;;;;;5087226;27;20405;-69
2023/05/11 11:20:39;;;;;;;9.60;5.88;;;;;;;;;;5098859;27;20031;-68
2023/05/11 11:23:04;;;;;;;11.23;5.32;;;;;;;;;;5100766;27;20078;-70
2023/05/11 11:25:51;;;;;;;9.15;5.50;;;;;;;;;;5099450;28;20526;-69
2023/05/11 11:28:16;;;;;;;12.23;5.03;;;;;;;;;;5102172;27;20023;-69
2023/05/11 11:30:42;;;;;;;10.38;5.15;;;;;;;;;;5104641;27;20036;-75
2023/05/11 11:33:07;;;;;;;14.93;5.93;;;;;;;;;;5112570;27;20044;-71
2023/05/11 11:35:39;;;;;;;9.23;5.32;;;;;;;;;;5099886;27;20042;-72
2023/05/11 11:38:06;;;;;;;13.40;5.47;;;;;;;;;;5095118;27;20521;-71
2023/05/11 11:40:42;;;;;;;12.55;5.60;;;;;;;;;;5091917;27;20015;-71
2023/05/11 11:43:17;;;;;;;12.75;5.63;;;;;;;;;;5089464;27;20107;-71
2023/05/11 11:45:54;;;;;;;13.65;5.18;;;;;;;;;;5088685;27;20036;-71
2023/05/11 11:48:39;;;;;;;10.27;5.55;;;;;;;;;;5094889;27;20211;-71
2023/05/11 11:51:09;;;;;;;10.65;4.68;;;;;;;;;;5088134;27;20065;-70
2023/05/11 11:53:39;;;;;;;11.15;4.90;;;;;;;;;;5094410;27;20512;-71
2023/05/11 11:56:06;;;;;;;8.43;4.63;;;;;;;;;;5089493;28;20109;-71
2023/05/11 11:58:44;;;;;;;8.70;4.45;;;;;;;;;;5085993;27;20035;-71
2023/05/11 12:01:17;;;;;;;9.90;4.78;;;;;;;;;;5100371;27;20046;-73
2023/05/11 12:03:45;;;;;;;14.43;5.03;;;;;;;;;;5094261;27;20051;-73
2023/05/11 12:06:12;;;;;;;10.15;4.85;;;;;;;;;;5089283;27;20048;-70
2023/05/11 12:08:39;;;;;;;10.52;5.50;;;;;;;;;;5088993;27;20047;-71
2023/05/11 12:11:05;;;;;;;10.30;5.13;;;;;;;;;;5091964;27;20119;-70
2023/05/11 12:13:32;;;;;;;10.13;4.43;;;;;;;;;;5094255;27;20027;-83
2023/05/11 12:16:11;;;;;;;6.88;4.18;;;;;;;;;;5090126;28;20055;-74
2023/05/11 12:18:41;;;;;;;10.05;4.60;;;;;;;;;;5093355;27;20028;-75
2023/05/11 12:21:21;;;;;;;8.25;4.38;;;;;;;;;;5094522;27;20059;-70
2023/05/11 12:23:58;;;;;;;7.15;4.25;;;;;;;;;;5091518;27;20043;-71
2023/05/11 12:26:26;;;;;;;9.07;4.70;;;;;;;;;;5085359;28;20047;-75
2023/05/11 12:29:06;;;;;;;7.45;4.00;;;;;;;;;;5093485;27;20092;-73
2023/05/11 12:31:38;;;;;;;8.93;4.00;;;;;;;;;;5088637;27;20061;-71
2023/05/11 12:34:03;;;;;;;10.43;4.60;;;;;;;;;;5099409;27;20023;-74
2023/05/11 12:36:29;;;;;;;10.27;4.35;;;;;;;;;;5099221;27;20040;-72
2023/05/11 12:38:55;;;;;;;7.50;4.20;;;;;;;;;;5094692;27;20036;-73
2023/05/11 12:41:22;;;;;;;8.05;4.25;;;;;;;;;;5094769;27;20146;-73
2023/05/11 12:43:51;;;;;;;11.35;4.30;;;;;;;;;;5087870;27;20127;-76
2023/05/11 12:46:18;;;;;;;9.80;3.90;;;;;;;;;;5094749;27;20020;-79
2023/05/11 12:48:45;;;;;;;10.95;4.68;;;;;;;;;;5093405;27;20032;-79
2023/05/11 12:51:11;;;;;;;6.88;3.85;;;;;;;;;;5093182;28;20047;-72
2023/05/11 12:53:38;;;;;;;6.07;3.75;;;;;;;;;;5094413;28;20730;-75
2023/05/11 12:56:04;;;;;;;6.75;3.58;;;;;;;;;;5095871;27;20031;-71
2023/05/11 12:58:39;;;;;;;6.80;3.55;;;;;;;;;;5094358;27;20027;-73
2023/05/11 13:01:05;;;;;;;8.88;4.38;;;;;;;;;;5102287;27;20055;-73
2023/05/11 13:03:34;;;;;;;10.40;4.25;;;;;;;;;;5099497;27;20042;-73
2023/05/11 13:06:10;;;;;;;7.32;3.70;;;;;;;;;;5095092;27;20035;-72
2023/05/11 13:08:37;;;;;;;8.90;4.35;;;;;;;;;;5093991;27;20046;-72
2023/05/11 13:11:25;;;;;;;7.90;4.07;;;;;;;;;;5094024;27;20036;-72
2023/05/11 13:13:52;;;;;;;7.38;3.97;;;;;;;;;;5095574;27;20039;-72
2023/05/11 13:16:31;;;;;;;8.48;4.32;;;;;;;;;;5094570;27;20062;-73
2023/05/11 13:19:01;;;;;;;8.32;4.18;;;;;;;;;;5092075;28;20082;-72
2023/05/11 13:21:28;;;;;;;9.88;4.10;;;;;;;;;;5093939;27;20048;-72
2023/05/11 13:23:53;;;;;;;7.07;4.60;;;;;;;;;;5088018;28;20116;-71
2023/05/11 13:26:23;;;;;;;9.50;3.92;;;;;;;;;;5097275;28;20067;-72
2023/05/11 13:28:49;;;;;;;12.63;3.83;;;;;;;;;;5094028;27;20035;-71
2023/05/11 13:31:14;;;;;;;7.57;3.30;;;;;;;;;;5099746;28;20106;-74
2023/05/11 13:33:40;;;;;;;8.23;3.58;;;;;;;;;;5086150;27;20115;-72
2023/05/11 13:36:06;;;;;;;8.18;3.42;;;;;;;;;;5091226;28;20032;-79
2023/05/11 13:38:31;;;;;;;9.02;3.40;;;;;;;;;;5088712;28;20036;-75
2023/05/11 13:40:56;;;;;;;8.90;3.70;;;;;;;;;;5098351;28;20036;-73
2023/05/11 13:43:21;;;;;;;7.72;3.63;;;;;;;;;;5088472;28;20020;-73
2023/05/11 13:45:47;;;;;;;8.10;3.45;;;;;;;;;;5094186;27;20448;-73
2023/05/11 13:48:12;;;;;;;7.05;4.03;;;;;;;;;;5091207;27;20089;-73
2023/05/11 13:50:38;;;;;;;7.05;3.78;;;;;;;;;;5099308;27;20131;-73
2023/05/11 13:53:03;;;;;;;6.35;3.22;;;;;;;;;;5109487;27;20039;-73
2023/05/11 13:55:29;;;;;;;7.28;3.70;;;;;;;;;;5090882;27;20031;-73
2023/05/11 13:57:55;;;;;;;9.38;3.83;;;;;;;;;;5091938;27;20020;-76
2023/05/11 14:00:21;;;;;;;4.32;3.03;;;;;;;;;;5092587;27;20055;-73
2023/05/11 14:02:49;;;;;;;6.68;3.28;;;;;;;;;;5088431;27;20032;-73
2023/05/11 14:05:15;;;;;;;5.85;3.63;;;;;;;;;;5092956;27;20887;-73
2023/05/11 14:07:41;;;;;;;8.73;4.18;;;;;;;;;;5099231;27;20122;-72
2023/05/11 14:10:08;;;;;;;7.95;4.07;;;;;;;;;;5104086;27;20477;-72
2023/05/11 14:12:33;;;;;;;7.20;3.78;;;;;;;;;;5089769;27;20115;-76
2023/05/11 14:14:58;;;;;;;6.97;3.75;;;;;;;;;;5106642;27;20130;-74
2023/05/11 14:17:24;;;;;;;9.90;3.88;;;;;;;;;;5101561;27;20108;-78
2023/05/11 14:19:49;;;;;;;8.77;4.22;;;;;;;;;;5103767;27;20789;-82
2023/05/11 14:22:14;;;;;;;9.65;4.38;;;;;;;;;;5103860;27;20098;-69
2023/05/11 14:24:40;;;;;;;6.47;3.88;;;;;;;;;;5092253;27;20425;-70
2023/05/11 14:27:05;;;;;;;8.93;5.63;;;;;;;;;;5088300;27;20031;-71
2023/05/11 14:29:31;;;;;;;6.28;3.95;;;;;;;;;;5096297;28;20405;-71
2023/05/11 14:31:56;;;;;;;8.80;3.83;;;;;;;;;;5103296;27;20083;-71
2023/05/11 14:34:21;;;;;;;5.50;3.65;;;;;;;;;;5099577;27;20102;-71
2023/05/11 14:36:47;;;;;;;6.03;3.63;;;;;;;;;;5103031;27;20527;-78
2023/05/11 14:39:12;;;;;;;5.15;3.22;;;;;;;;;;5098376;27;20032;-77